臺東航空站 - ATIS

METAR RCFN 230030Z 18007KT 150V220 9999 FEW025 29/24 Q1009 NOSIG RMK A2982=

站台狀態:Online
最後更新:2018-06-23 09:00:02